sensor_id;sensor_type;location;lat;lon;timestamp;P1;durP1;ratioP1;P2;durP2;ratioP2
15130;SDS011;7666;50.920;4.628;2023-09-19T00:02:17;9.67;;;2.37;;
15130;SDS011;7666;50.920;4.628;2023-09-19T00:05:03;11.57;;;2.57;;
15130;SDS011;7666;50.920;4.628;2023-09-19T00:07:51;11.00;;;2.87;;
15130;SDS011;7666;50.920;4.628;2023-09-19T00:10:40;10.57;;;2.77;;
15130;SDS011;7666;50.920;4.628;2023-09-19T00:13:27;13.03;;;2.70;;
15130;SDS011;7666;50.920;4.628;2023-09-19T00:16:14;8.83;;;2.50;;
15130;SDS011;7666;50.920;4.628;2023-09-19T00:19:00;13.90;;;2.90;;
15130;SDS011;7666;50.920;4.628;2023-09-19T00:21:46;10.77;;;2.93;;
15130;SDS011;7666;50.920;4.628;2023-09-19T00:24:32;11.40;;;2.43;;
15130;SDS011;7666;50.920;4.628;2023-09-19T00:27:18;6.97;;;2.10;;
15130;SDS011;7666;50.920;4.628;2023-09-19T00:30:04;8.47;;;2.50;;
15130;SDS011;7666;50.920;4.628;2023-09-19T00:32:53;6.93;;;2.10;;
15130;SDS011;7666;50.920;4.628;2023-09-19T00:35:39;11.00;;;2.17;;
15130;SDS011;7666;50.920;4.628;2023-09-19T00:38:33;12.07;;;3.03;;
15130;SDS011;7666;50.920;4.628;2023-09-19T00:41:19;12.97;;;3.00;;
15130;SDS011;7666;50.920;4.628;2023-09-19T00:44:06;11.10;;;2.50;;
15130;SDS011;7666;50.920;4.628;2023-09-19T00:46:52;12.10;;;2.80;;
15130;SDS011;7666;50.920;4.628;2023-09-19T00:49:38;8.60;;;2.53;;
15130;SDS011;7666;50.920;4.628;2023-09-19T00:52:24;9.67;;;2.77;;
15130;SDS011;7666;50.920;4.628;2023-09-19T00:55:12;10.93;;;2.80;;
15130;SDS011;7666;50.920;4.628;2023-09-19T00:58:01;12.60;;;2.53;;
15130;SDS011;7666;50.920;4.628;2023-09-19T01:00:48;13.40;;;3.17;;
15130;SDS011;7666;50.920;4.628;2023-09-19T01:03:34;12.60;;;3.10;;
15130;SDS011;7666;50.920;4.628;2023-09-19T01:06:21;10.17;;;2.90;;
15130;SDS011;7666;50.920;4.628;2023-09-19T01:09:07;13.03;;;2.60;;
15130;SDS011;7666;50.920;4.628;2023-09-19T01:11:55;9.80;;;2.70;;
15130;SDS011;7666;50.920;4.628;2023-09-19T01:17:46;8.27;;;2.47;;
15130;SDS011;7666;50.920;4.628;2023-09-19T01:30:17;11.50;;;2.97;;
15130;SDS011;7666;50.920;4.628;2023-09-19T01:33:07;7.90;;;2.53;;
15130;SDS011;7666;50.920;4.628;2023-09-19T01:35:56;9.17;;;2.23;;
15130;SDS011;7666;50.920;4.628;2023-09-19T01:38:43;9.87;;;2.67;;
15130;SDS011;7666;50.920;4.628;2023-09-19T01:41:41;8.43;;;2.50;;
15130;SDS011;7666;50.920;4.628;2023-09-19T01:48:11;10.13;;;2.87;;
15130;SDS011;7666;50.920;4.628;2023-09-19T01:50:38;12.83;;;4.00;;
15130;SDS011;7666;50.920;4.628;2023-09-19T01:53:33;10.57;;;3.10;;
15130;SDS011;7666;50.920;4.628;2023-09-19T01:56:23;9.93;;;3.10;;
15130;SDS011;7666;50.920;4.628;2023-09-19T01:59:22;8.83;;;3.03;;
15130;SDS011;7666;50.920;4.628;2023-09-19T02:02:14;9.57;;;2.40;;
15130;SDS011;7666;50.920;4.628;2023-09-19T02:05:03;10.40;;;2.37;;
15130;SDS011;7666;50.920;4.628;2023-09-19T02:07:50;11.73;;;2.57;;
15130;SDS011;7666;50.920;4.628;2023-09-19T02:10:38;10.13;;;3.00;;
15130;SDS011;7666;50.920;4.628;2023-09-19T02:13:26;11.37;;;3.00;;
15130;SDS011;7666;50.920;4.628;2023-09-19T02:16:16;16.93;;;2.97;;
15130;SDS011;7666;50.920;4.628;2023-09-19T02:19:02;10.80;;;3.00;;
15130;SDS011;7666;50.920;4.628;2023-09-19T02:21:51;9.60;;;2.50;;
15130;SDS011;7666;50.920;4.628;2023-09-19T02:24:37;11.33;;;2.97;;
15130;SDS011;7666;50.920;4.628;2023-09-19T02:27:24;10.53;;;2.87;;
15130;SDS011;7666;50.920;4.628;2023-09-19T02:30:10;11.90;;;2.83;;
15130;SDS011;7666;50.920;4.628;2023-09-19T02:32:56;13.37;;;2.97;;
15130;SDS011;7666;50.920;4.628;2023-09-19T02:35:42;9.63;;;2.67;;
15130;SDS011;7666;50.920;4.628;2023-09-19T02:38:28;13.73;;;3.40;;
15130;SDS011;7666;50.920;4.628;2023-09-19T02:41:14;11.80;;;2.90;;
15130;SDS011;7666;50.920;4.628;2023-09-19T02:44:00;10.67;;;2.67;;
15130;SDS011;7666;50.920;4.628;2023-09-19T02:46:46;13.10;;;3.13;;
15130;SDS011;7666;50.920;4.628;2023-09-19T02:49:32;9.93;;;2.73;;
15130;SDS011;7666;50.920;4.628;2023-09-19T02:52:18;11.33;;;3.10;;
15130;SDS011;7666;50.920;4.628;2023-09-19T02:55:04;12.97;;;3.23;;
15130;SDS011;7666;50.920;4.628;2023-09-19T02:57:54;11.83;;;2.93;;
15130;SDS011;7666;50.920;4.628;2023-09-19T03:00:40;11.33;;;3.03;;
15130;SDS011;7666;50.920;4.628;2023-09-19T03:03:33;11.97;;;2.90;;
15130;SDS011;7666;50.920;4.628;2023-09-19T03:06:19;12.57;;;3.23;;
15130;SDS011;7666;50.920;4.628;2023-09-19T03:09:05;11.33;;;3.30;;
15130;SDS011;7666;50.920;4.628;2023-09-19T03:11:57;8.30;;;2.50;;
15130;SDS011;7666;50.920;4.628;2023-09-19T03:14:44;11.77;;;2.67;;
15130;SDS011;7666;50.920;4.628;2023-09-19T03:17:30;8.90;;;2.67;;
15130;SDS011;7666;50.920;4.628;2023-09-19T03:20:17;13.17;;;3.30;;
15130;SDS011;7666;50.920;4.628;2023-09-19T03:23:04;8.73;;;2.80;;
15130;SDS011;7666;50.920;4.628;2023-09-19T03:25:51;9.47;;;2.97;;
15130;SDS011;7666;50.920;4.628;2023-09-19T03:28:41;8.47;;;2.90;;
15130;SDS011;7666;50.920;4.628;2023-09-19T03:31:28;15.40;;;3.47;;
15130;SDS011;7666;50.920;4.628;2023-09-19T03:34:14;10.53;;;2.63;;
15130;SDS011;7666;50.920;4.628;2023-09-19T03:37:00;9.33;;;2.90;;
15130;SDS011;7666;50.920;4.628;2023-09-19T03:39:46;10.10;;;3.00;;
15130;SDS011;7666;50.920;4.628;2023-09-19T03:42:32;11.93;;;2.50;;
15130;SDS011;7666;50.920;4.628;2023-09-19T03:45:21;11.07;;;2.77;;
15130;SDS011;7666;50.920;4.628;2023-09-19T03:48:10;10.97;;;3.17;;
15130;SDS011;7666;50.920;4.628;2023-09-19T03:50:56;14.33;;;3.10;;
15130;SDS011;7666;50.920;4.628;2023-09-19T03:53:42;10.47;;;2.90;;
15130;SDS011;7666;50.920;4.628;2023-09-19T03:56:28;8.00;;;2.53;;
15130;SDS011;7666;50.920;4.628;2023-09-19T03:59:15;9.50;;;2.50;;
15130;SDS011;7666;50.920;4.628;2023-09-19T04:02:01;8.40;;;2.70;;
15130;SDS011;7666;50.920;4.628;2023-09-19T04:04:50;8.90;;;2.47;;
15130;SDS011;7666;50.920;4.628;2023-09-19T04:07:37;9.20;;;2.63;;
15130;SDS011;7666;50.920;4.628;2023-09-19T04:10:23;10.47;;;2.70;;
15130;SDS011;7666;50.920;4.628;2023-09-19T04:13:09;12.00;;;2.80;;
15130;SDS011;7666;50.920;4.628;2023-09-19T04:15:55;10.90;;;3.00;;
15130;SDS011;7666;50.920;4.628;2023-09-19T04:18:42;11.60;;;2.80;;
15130;SDS011;7666;50.920;4.628;2023-09-19T04:21:28;11.93;;;3.20;;
15130;SDS011;7666;50.920;4.628;2023-09-19T04:24:14;11.30;;;3.07;;
15130;SDS011;7666;50.920;4.628;2023-09-19T04:27:00;14.03;;;2.80;;
15130;SDS011;7666;50.920;4.628;2023-09-19T04:29:47;9.23;;;2.83;;
15130;SDS011;7666;50.920;4.628;2023-09-19T04:32:33;12.37;;;3.23;;
15130;SDS011;7666;50.920;4.628;2023-09-19T04:35:19;10.07;;;2.80;;
15130;SDS011;7666;50.920;4.628;2023-09-19T04:38:05;8.43;;;3.00;;
15130;SDS011;7666;50.920;4.628;2023-09-19T04:40:56;13.83;;;3.00;;
15130;SDS011;7666;50.920;4.628;2023-09-19T04:43:42;10.87;;;2.93;;
15130;SDS011;7666;50.920;4.628;2023-09-19T04:46:28;11.03;;;3.53;;
15130;SDS011;7666;50.920;4.628;2023-09-19T04:49:16;9.23;;;2.80;;
15130;SDS011;7666;50.920;4.628;2023-09-19T04:52:02;15.30;;;3.30;;
15130;SDS011;7666;50.920;4.628;2023-09-19T04:54:49;12.13;;;3.27;;
15130;SDS011;7666;50.920;4.628;2023-09-19T04:57:35;15.80;;;3.30;;
15130;SDS011;7666;50.920;4.628;2023-09-19T05:00:22;15.07;;;3.13;;
15130;SDS011;7666;50.920;4.628;2023-09-19T05:03:09;10.43;;;3.10;;
15130;SDS011;7666;50.920;4.628;2023-09-19T05:05:55;12.70;;;2.90;;
15130;SDS011;7666;50.920;4.628;2023-09-19T05:08:41;10.33;;;2.80;;
15130;SDS011;7666;50.920;4.628;2023-09-19T05:11:28;11.10;;;2.80;;
15130;SDS011;7666;50.920;4.628;2023-09-19T05:14:15;10.20;;;3.20;;
15130;SDS011;7666;50.920;4.628;2023-09-19T05:17:01;12.20;;;3.50;;
15130;SDS011;7666;50.920;4.628;2023-09-19T05:19:49;11.77;;;3.07;;
15130;SDS011;7666;50.920;4.628;2023-09-19T05:22:35;16.10;;;2.80;;
15130;SDS011;7666;50.920;4.628;2023-09-19T05:25:21;12.33;;;2.90;;
15130;SDS011;7666;50.920;4.628;2023-09-19T05:28:08;13.43;;;3.17;;
15130;SDS011;7666;50.920;4.628;2023-09-19T05:30:59;12.13;;;2.87;;
15130;SDS011;7666;50.920;4.628;2023-09-19T05:33:47;10.00;;;2.70;;
15130;SDS011;7666;50.920;4.628;2023-09-19T05:36:33;14.00;;;3.13;;
15130;SDS011;7666;50.920;4.628;2023-09-19T05:39:19;13.17;;;3.40;;
15130;SDS011;7666;50.920;4.628;2023-09-19T05:42:05;12.30;;;2.90;;
15130;SDS011;7666;50.920;4.628;2023-09-19T05:44:53;12.83;;;3.20;;
15130;SDS011;7666;50.920;4.628;2023-09-19T05:47:39;8.70;;;2.97;;
15130;SDS011;7666;50.920;4.628;2023-09-19T05:50:26;10.87;;;2.70;;
15130;SDS011;7666;50.920;4.628;2023-09-19T05:53:12;12.27;;;2.93;;
15130;SDS011;7666;50.920;4.628;2023-09-19T05:55:59;9.53;;;3.27;;
15130;SDS011;7666;50.920;4.628;2023-09-19T05:58:46;10.93;;;2.57;;
15130;SDS011;7666;50.920;4.628;2023-09-19T06:01:32;12.50;;;2.87;;
15130;SDS011;7666;50.920;4.628;2023-09-19T06:04:19;10.53;;;2.80;;
15130;SDS011;7666;50.920;4.628;2023-09-19T06:07:06;12.17;;;2.80;;
15130;SDS011;7666;50.920;4.628;2023-09-19T06:09:52;11.70;;;3.10;;
15130;SDS011;7666;50.920;4.628;2023-09-19T06:12:39;11.13;;;2.83;;
15130;SDS011;7666;50.920;4.628;2023-09-19T06:15:26;12.13;;;2.77;;
15130;SDS011;7666;50.920;4.628;2023-09-19T06:18:12;12.43;;;3.87;;
15130;SDS011;7666;50.920;4.628;2023-09-19T06:21:04;14.87;;;3.10;;
15130;SDS011;7666;50.920;4.628;2023-09-19T06:23:53;11.43;;;2.57;;
15130;SDS011;7666;50.920;4.628;2023-09-19T06:26:39;12.67;;;3.07;;
15130;SDS011;7666;50.920;4.628;2023-09-19T06:29:25;11.43;;;3.00;;
15130;SDS011;7666;50.920;4.628;2023-09-19T06:32:12;9.80;;;3.00;;
15130;SDS011;7666;50.920;4.628;2023-09-19T06:34:58;11.10;;;2.90;;
15130;SDS011;7666;50.920;4.628;2023-09-19T06:37:44;13.57;;;2.80;;
15130;SDS011;7666;50.920;4.628;2023-09-19T06:40:30;9.97;;;2.93;;
15130;SDS011;7666;50.920;4.628;2023-09-19T06:43:16;8.83;;;2.43;;
15130;SDS011;7666;50.920;4.628;2023-09-19T06:46:02;10.50;;;2.60;;
15130;SDS011;7666;50.920;4.628;2023-09-19T06:48:49;11.57;;;2.90;;
15130;SDS011;7666;50.920;4.628;2023-09-19T06:51:37;11.13;;;2.90;;
15130;SDS011;7666;50.920;4.628;2023-09-19T06:54:23;10.60;;;2.93;;
15130;SDS011;7666;50.920;4.628;2023-09-19T06:57:09;7.60;;;2.53;;
15130;SDS011;7666;50.920;4.628;2023-09-19T06:59:55;8.57;;;2.50;;
15130;SDS011;7666;50.920;4.628;2023-09-19T07:02:41;11.30;;;3.07;;
15130;SDS011;7666;50.920;4.628;2023-09-19T07:05:27;9.80;;;2.10;;
15130;SDS011;7666;50.920;4.628;2023-09-19T07:08:14;7.67;;;2.37;;
15130;SDS011;7666;50.920;4.628;2023-09-19T07:11:00;12.07;;;2.50;;
15130;SDS011;7666;50.920;4.628;2023-09-19T07:13:46;12.70;;;2.77;;
15130;SDS011;7666;50.920;4.628;2023-09-19T07:16:32;12.13;;;2.70;;
15130;SDS011;7666;50.920;4.628;2023-09-19T07:19:18;9.77;;;2.70;;
15130;SDS011;7666;50.920;4.628;2023-09-19T07:22:04;8.23;;;2.43;;
15130;SDS011;7666;50.920;4.628;2023-09-19T07:24:50;9.47;;;3.20;;
15130;SDS011;7666;50.920;4.628;2023-09-19T07:27:36;10.77;;;2.40;;
15130;SDS011;7666;50.920;4.628;2023-09-19T07:30:22;8.73;;;2.43;;
15130;SDS011;7666;50.920;4.628;2023-09-19T07:33:08;6.67;;;1.97;;
15130;SDS011;7666;50.920;4.628;2023-09-19T07:35:56;11.90;;;3.20;;
15130;SDS011;7666;50.920;4.628;2023-09-19T07:38:42;9.67;;;2.57;;
15130;SDS011;7666;50.920;4.628;2023-09-19T07:41:28;7.80;;;2.47;;
15130;SDS011;7666;50.920;4.628;2023-09-19T07:44:15;9.17;;;2.80;;
15130;SDS011;7666;50.920;4.628;2023-09-19T07:47:02;11.60;;;2.70;;
15130;SDS011;7666;50.920;4.628;2023-09-19T07:49:48;11.80;;;2.60;;
15130;SDS011;7666;50.920;4.628;2023-09-19T07:52:34;8.93;;;2.17;;
15130;SDS011;7666;50.920;4.628;2023-09-19T07:55:20;9.20;;;2.57;;
15130;SDS011;7666;50.920;4.628;2023-09-19T07:58:10;11.27;;;2.43;;
15130;SDS011;7666;50.920;4.628;2023-09-19T08:00:56;10.17;;;2.60;;
15130;SDS011;7666;50.920;4.628;2023-09-19T08:03:42;8.13;;;2.80;;
15130;SDS011;7666;50.920;4.628;2023-09-19T08:06:29;6.63;;;2.43;;
15130;SDS011;7666;50.920;4.628;2023-09-19T08:09:15;9.70;;;3.23;;
15130;SDS011;7666;50.920;4.628;2023-09-19T08:12:06;9.57;;;2.73;;
15130;SDS011;7666;50.920;4.628;2023-09-19T08:14:55;9.10;;;2.60;;
15130;SDS011;7666;50.920;4.628;2023-09-19T08:17:41;9.13;;;2.50;;
15130;SDS011;7666;50.920;4.628;2023-09-19T08:20:28;10.53;;;2.97;;
15130;SDS011;7666;50.920;4.628;2023-09-19T08:23:14;8.03;;;2.47;;
15130;SDS011;7666;50.920;4.628;2023-09-19T08:26:00;11.80;;;2.87;;
15130;SDS011;7666;50.920;4.628;2023-09-19T08:28:48;11.07;;;2.93;;
15130;SDS011;7666;50.920;4.628;2023-09-19T08:31:36;13.17;;;2.80;;
15130;SDS011;7666;50.920;4.628;2023-09-19T08:34:23;11.57;;;2.50;;
15130;SDS011;7666;50.920;4.628;2023-09-19T08:37:09;9.30;;;2.70;;
15130;SDS011;7666;50.920;4.628;2023-09-19T08:39:55;9.93;;;2.90;;
15130;SDS011;7666;50.920;4.628;2023-09-19T08:42:51;11.80;;;2.87;;
15130;SDS011;7666;50.920;4.628;2023-09-19T08:45:39;10.90;;;2.73;;
15130;SDS011;7666;50.920;4.628;2023-09-19T08:48:26;11.50;;;3.17;;
15130;SDS011;7666;50.920;4.628;2023-09-19T08:51:18;10.80;;;2.33;;
15130;SDS011;7666;50.920;4.628;2023-09-19T08:54:17;11.60;;;2.63;;
15130;SDS011;7666;50.920;4.628;2023-09-19T08:57:07;8.60;;;2.77;;
15130;SDS011;7666;50.920;4.628;2023-09-19T08:59:56;9.20;;;2.67;;
15130;SDS011;7666;50.920;4.628;2023-09-19T09:02:43;13.13;;;3.07;;
15130;SDS011;7666;50.920;4.628;2023-09-19T09:05:31;9.70;;;2.60;;
15130;SDS011;7666;50.920;4.628;2023-09-19T09:08:19;8.97;;;2.67;;
15130;SDS011;7666;50.920;4.628;2023-09-19T09:11:07;9.90;;;2.60;;
15130;SDS011;7666;50.920;4.628;2023-09-19T09:13:53;5.87;;;2.20;;
15130;SDS011;7666;50.920;4.628;2023-09-19T09:16:39;9.17;;;2.27;;
15130;SDS011;7666;50.920;4.628;2023-09-19T09:19:25;9.40;;;2.77;;
15130;SDS011;7666;50.920;4.628;2023-09-19T09:22:11;7.57;;;2.40;;
15130;SDS011;7666;50.920;4.628;2023-09-19T09:24:57;11.93;;;2.80;;
15130;SDS011;7666;50.920;4.628;2023-09-19T09:27:45;11.13;;;2.70;;
15130;SDS011;7666;50.920;4.628;2023-09-19T09:30:43;9.40;;;2.37;;
15130;SDS011;7666;50.920;4.628;2023-09-19T09:33:29;11.83;;;2.70;;
15130;SDS011;7666;50.920;4.628;2023-09-19T09:36:15;11.27;;;2.90;;
15130;SDS011;7666;50.920;4.628;2023-09-19T09:39:04;8.97;;;2.27;;
15130;SDS011;7666;50.920;4.628;2023-09-19T09:42:12;6.17;;;2.07;;
15130;SDS011;7666;50.920;4.628;2023-09-19T09:48:14;8.20;;;2.43;;
15130;SDS011;7666;50.920;4.628;2023-09-19T09:51:00;8.87;;;2.37;;
15130;SDS011;7666;50.920;4.628;2023-09-19T09:53:48;8.97;;;2.27;;
15130;SDS011;7666;50.920;4.628;2023-09-19T09:56:34;7.23;;;2.20;;
15130;SDS011;7666;50.920;4.628;2023-09-19T09:59:43;7.13;;;2.40;;
15130;SDS011;7666;50.920;4.628;2023-09-19T10:02:40;8.73;;;2.33;;
15130;SDS011;7666;50.920;4.628;2023-09-19T10:05:27;8.40;;;2.13;;
15130;SDS011;7666;50.920;4.628;2023-09-19T10:08:13;7.73;;;2.20;;
15130;SDS011;7666;50.920;4.628;2023-09-19T10:11:15;8.07;;;1.77;;
15130;SDS011;7666;50.920;4.628;2023-09-19T10:14:01;8.47;;;2.27;;
15130;SDS011;7666;50.920;4.628;2023-09-19T10:16:52;8.03;;;2.10;;
15130;SDS011;7666;50.920;4.628;2023-09-19T10:20:03;7.97;;;2.00;;
15130;SDS011;7666;50.920;4.628;2023-09-19T10:23:12;6.87;;;2.00;;
15130;SDS011;7666;50.920;4.628;2023-09-19T10:25:59;8.53;;;2.20;;
15130;SDS011;7666;50.920;4.628;2023-09-19T10:28:48;7.50;;;1.77;;
15130;SDS011;7666;50.920;4.628;2023-09-19T10:31:36;5.40;;;1.70;;
15130;SDS011;7666;50.920;4.628;2023-09-19T10:34:26;7.03;;;1.70;;
15130;SDS011;7666;50.920;4.628;2023-09-19T10:37:15;9.80;;;1.70;;
15130;SDS011;7666;50.920;4.628;2023-09-19T10:40:02;10.63;;;2.37;;
15130;SDS011;7666;50.920;4.628;2023-09-19T10:42:54;6.50;;;2.13;;
15130;SDS011;7666;50.920;4.628;2023-09-19T10:45:49;9.40;;;2.03;;
15130;SDS011;7666;50.920;4.628;2023-09-19T10:48:38;7.63;;;1.90;;
15130;SDS011;7666;50.920;4.628;2023-09-19T10:51:25;5.20;;;1.40;;
15130;SDS011;7666;50.920;4.628;2023-09-19T10:54:19;5.83;;;1.37;;
15130;SDS011;7666;50.920;4.628;2023-09-19T10:57:11;5.50;;;1.83;;
15130;SDS011;7666;50.920;4.628;2023-09-19T11:00:05;5.90;;;1.50;;
15130;SDS011;7666;50.920;4.628;2023-09-19T11:06:05;4.10;;;1.13;;
15130;SDS011;7666;50.920;4.628;2023-09-19T11:08:57;7.13;;;1.40;;
15130;SDS011;7666;50.920;4.628;2023-09-19T11:12:00;7.47;;;1.80;;
15130;SDS011;7666;50.920;4.628;2023-09-19T11:14:46;6.80;;;1.90;;
15130;SDS011;7666;50.920;4.628;2023-09-19T11:17:35;6.20;;;1.57;;
15130;SDS011;7666;50.920;4.628;2023-09-19T11:20:30;4.23;;;1.50;;
15130;SDS011;7666;50.920;4.628;2023-09-19T11:23:25;3.93;;;1.17;;
15130;SDS011;7666;50.920;4.628;2023-09-19T11:26:32;5.30;;;1.40;;
15130;SDS011;7666;50.920;4.628;2023-09-19T11:29:33;5.20;;;1.50;;
15130;SDS011;7666;50.920;4.628;2023-09-19T11:32:44;4.40;;;1.43;;
15130;SDS011;7666;50.920;4.628;2023-09-19T11:41:39;4.87;;;1.30;;
15130;SDS011;7666;50.920;4.628;2023-09-19T11:47:12;6.70;;;1.17;;
15130;SDS011;7666;50.920;4.628;2023-09-19T11:49:59;6.30;;;1.50;;
15130;SDS011;7666;50.920;4.628;2023-09-19T11:52:47;4.77;;;1.57;;
15130;SDS011;7666;50.920;4.628;2023-09-19T11:55:34;5.60;;;1.23;;
15130;SDS011;7666;50.920;4.628;2023-09-19T11:58:23;5.17;;;1.20;;
15130;SDS011;7666;50.920;4.628;2023-09-19T12:01:12;9.30;;;1.37;;
15130;SDS011;7666;50.920;4.628;2023-09-19T12:04:01;5.17;;;1.20;;
15130;SDS011;7666;50.920;4.628;2023-09-19T12:06:56;4.13;;;1.40;;
15130;SDS011;7666;50.920;4.628;2023-09-19T12:09:50;6.67;;;1.10;;
15130;SDS011;7666;50.920;4.628;2023-09-19T12:12:51;5.53;;;1.40;;
15130;SDS011;7666;50.920;4.628;2023-09-19T12:15:38;3.17;;;1.10;;
15130;SDS011;7666;50.920;4.628;2023-09-19T12:18:29;5.57;;;1.33;;
15130;SDS011;7666;50.920;4.628;2023-09-19T12:21:25;6.27;;;1.47;;
15130;SDS011;7666;50.920;4.628;2023-09-19T12:24:18;3.47;;;1.10;;
15130;SDS011;7666;50.920;4.628;2023-09-19T12:27:05;4.57;;;1.30;;
15130;SDS011;7666;50.920;4.628;2023-09-19T12:29:52;3.77;;;1.10;;
15130;SDS011;7666;50.920;4.628;2023-09-19T12:32:44;6.27;;;1.10;;
15130;SDS011;7666;50.920;4.628;2023-09-19T12:35:32;4.23;;;1.33;;
15130;SDS011;7666;50.920;4.628;2023-09-19T12:38:22;4.83;;;1.30;;
15130;SDS011;7666;50.920;4.628;2023-09-19T12:41:13;5.13;;;0.93;;
15130;SDS011;7666;50.920;4.628;2023-09-19T12:43:59;12.80;;;1.90;;
15130;SDS011;7666;50.920;4.628;2023-09-19T12:46:46;2.63;;;0.93;;
15130;SDS011;7666;50.920;4.628;2023-09-19T12:49:32;4.30;;;1.10;;
15130;SDS011;7666;50.920;4.628;2023-09-19T12:52:18;5.30;;;1.00;;
15130;SDS011;7666;50.920;4.628;2023-09-19T12:55:05;3.63;;;1.40;;
15130;SDS011;7666;50.920;4.628;2023-09-19T13:00:58;4.93;;;1.47;;
15130;SDS011;7666;50.920;4.628;2023-09-19T13:03:45;4.43;;;1.10;;
15130;SDS011;7666;50.920;4.628;2023-09-19T13:06:37;3.20;;;1.20;;
15130;SDS011;7666;50.920;4.628;2023-09-19T13:09:29;3.63;;;1.10;;
15130;SDS011;7666;50.920;4.628;2023-09-19T13:12:36;6.40;;;1.37;;
15130;SDS011;7666;50.920;4.628;2023-09-19T13:15:24;5.17;;;1.20;;
15130;SDS011;7666;50.920;4.628;2023-09-19T13:18:14;3.50;;;1.27;;
15130;SDS011;7666;50.920;4.628;2023-09-19T13:21:10;4.23;;;1.30;;
15130;SDS011;7666;50.920;4.628;2023-09-19T13:24:22;3.53;;;1.10;;
15130;SDS011;7666;50.920;4.628;2023-09-19T13:27:13;3.57;;;1.20;;
15130;SDS011;7666;50.920;4.628;2023-09-19T13:29:59;4.03;;;1.00;;
15130;SDS011;7666;50.920;4.628;2023-09-19T13:32:45;5.83;;;1.63;;
15130;SDS011;7666;50.920;4.628;2023-09-19T13:35:32;6.20;;;1.10;;
15130;SDS011;7666;50.920;4.628;2023-09-19T13:38:18;5.67;;;1.10;;
15130;SDS011;7666;50.920;4.628;2023-09-19T13:41:07;5.00;;;1.20;;
15130;SDS011;7666;50.920;4.628;2023-09-19T13:43:53;5.13;;;1.20;;
15130;SDS011;7666;50.920;4.628;2023-09-19T13:46:42;3.77;;;1.37;;
15130;SDS011;7666;50.920;4.628;2023-09-19T13:49:31;3.90;;;1.20;;
15130;SDS011;7666;50.920;4.628;2023-09-19T13:52:17;2.77;;;1.00;;
15130;SDS011;7666;50.920;4.628;2023-09-19T13:55:04;3.00;;;1.20;;
15130;SDS011;7666;50.920;4.628;2023-09-19T13:57:52;5.67;;;1.20;;
15130;SDS011;7666;50.920;4.628;2023-09-19T14:00:39;4.03;;;1.10;;
15130;SDS011;7666;50.920;4.628;2023-09-19T14:03:26;3.93;;;1.30;;
15130;SDS011;7666;50.920;4.628;2023-09-19T14:06:13;3.80;;;1.00;;
15130;SDS011;7666;50.920;4.628;2023-09-19T14:08:59;4.00;;;1.57;;
15130;SDS011;7666;50.920;4.628;2023-09-19T14:11:46;5.70;;;1.40;;
15130;SDS011;7666;50.920;4.628;2023-09-19T14:14:33;6.17;;;1.30;;
15130;SDS011;7666;50.920;4.628;2023-09-19T14:17:20;3.87;;;1.20;;
15130;SDS011;7666;50.920;4.628;2023-09-19T14:20:06;4.60;;;1.30;;
15130;SDS011;7666;50.920;4.628;2023-09-19T14:22:53;3.00;;;1.00;;
15130;SDS011;7666;50.920;4.628;2023-09-19T14:25:39;4.87;;;1.40;;
15130;SDS011;7666;50.920;4.628;2023-09-19T14:28:26;3.77;;;1.07;;
15130;SDS011;7666;50.920;4.628;2023-09-19T14:31:12;3.83;;;1.20;;
15130;SDS011;7666;50.920;4.628;2023-09-19T14:33:58;2.77;;;1.07;;
15130;SDS011;7666;50.920;4.628;2023-09-19T14:36:45;5.33;;;1.43;;
15130;SDS011;7666;50.920;4.628;2023-09-19T14:39:30;6.23;;;1.50;;
15130;SDS011;7666;50.920;4.628;2023-09-19T14:42:16;3.07;;;1.37;;
15130;SDS011;7666;50.920;4.628;2023-09-19T14:45:03;3.63;;;1.23;;
15130;SDS011;7666;50.920;4.628;2023-09-19T14:47:50;2.20;;;1.10;;
15130;SDS011;7666;50.920;4.628;2023-09-19T14:50:40;4.67;;;1.40;;
15130;SDS011;7666;50.920;4.628;2023-09-19T14:53:26;3.80;;;1.40;;
15130;SDS011;7666;50.920;4.628;2023-09-19T14:56:13;4.17;;;1.17;;
15130;SDS011;7666;50.920;4.628;2023-09-19T14:59:03;4.47;;;1.53;;
15130;SDS011;7666;50.920;4.628;2023-09-19T15:01:49;4.83;;;1.80;;
15130;SDS011;7666;50.920;4.628;2023-09-19T15:04:35;4.83;;;1.70;;
15130;SDS011;7666;50.920;4.628;2023-09-19T15:07:22;4.50;;;1.50;;
15130;SDS011;7666;50.920;4.628;2023-09-19T15:10:09;4.23;;;1.43;;
15130;SDS011;7666;50.920;4.628;2023-09-19T15:12:55;8.70;;;2.30;;
15130;SDS011;7666;50.920;4.628;2023-09-19T15:15:41;6.13;;;1.70;;
15130;SDS011;7666;50.920;4.628;2023-09-19T15:18:29;4.30;;;1.60;;
15130;SDS011;7666;50.920;4.628;2023-09-19T15:21:19;5.10;;;1.47;;
15130;SDS011;7666;50.920;4.628;2023-09-19T15:24:05;4.30;;;1.50;;
15130;SDS011;7666;50.920;4.628;2023-09-19T15:26:55;4.97;;;1.50;;
15130;SDS011;7666;50.920;4.628;2023-09-19T15:29:41;6.57;;;1.90;;
15130;SDS011;7666;50.920;4.628;2023-09-19T15:32:27;4.53;;;1.60;;
15130;SDS011;7666;50.920;4.628;2023-09-19T15:35:13;7.20;;;1.67;;
15130;SDS011;7666;50.920;4.628;2023-09-19T15:38:02;8.37;;;2.10;;
15130;SDS011;7666;50.920;4.628;2023-09-19T15:40:49;3.27;;;1.47;;
15130;SDS011;7666;50.920;4.628;2023-09-19T15:43:35;5.07;;;1.93;;
15130;SDS011;7666;50.920;4.628;2023-09-19T15:46:21;4.03;;;1.60;;
15130;SDS011;7666;50.920;4.628;2023-09-19T15:49:07;4.63;;;1.50;;
15130;SDS011;7666;50.920;4.628;2023-09-19T15:51:53;6.47;;;1.90;;
15130;SDS011;7666;50.920;4.628;2023-09-19T15:54:39;8.40;;;1.70;;
15130;SDS011;7666;50.920;4.628;2023-09-19T15:57:29;6.83;;;1.90;;
15130;SDS011;7666;50.920;4.628;2023-09-19T16:00:16;3.60;;;1.27;;
15130;SDS011;7666;50.920;4.628;2023-09-19T16:03:02;5.97;;;1.50;;
15130;SDS011;7666;50.920;4.628;2023-09-19T16:05:49;5.67;;;1.73;;
15130;SDS011;7666;50.920;4.628;2023-09-19T16:08:35;4.83;;;1.60;;
15130;SDS011;7666;50.920;4.628;2023-09-19T16:11:24;2.20;;;1.30;;
15130;SDS011;7666;50.920;4.628;2023-09-19T16:14:11;6.47;;;1.70;;
15130;SDS011;7666;50.920;4.628;2023-09-19T16:16:57;6.20;;;1.50;;
15130;SDS011;7666;50.920;4.628;2023-09-19T16:19:43;3.83;;;1.73;;
15130;SDS011;7666;50.920;4.628;2023-09-19T16:22:29;5.03;;;1.50;;
15130;SDS011;7666;50.920;4.628;2023-09-19T16:25:15;4.37;;;1.60;;
15130;SDS011;7666;50.920;4.628;2023-09-19T16:28:01;5.47;;;1.57;;
15130;SDS011;7666;50.920;4.628;2023-09-19T16:30:48;2.87;;;1.07;;
15130;SDS011;7666;50.920;4.628;2023-09-19T16:33:35;4.50;;;1.30;;
15130;SDS011;7666;50.920;4.628;2023-09-19T16:36:22;4.33;;;1.23;;
15130;SDS011;7666;50.920;4.628;2023-09-19T16:39:09;5.97;;;1.50;;
15130;SDS011;7666;50.920;4.628;2023-09-19T16:41:56;4.50;;;1.50;;
15130;SDS011;7666;50.920;4.628;2023-09-19T16:44:42;4.57;;;1.70;;
15130;SDS011;7666;50.920;4.628;2023-09-19T16:47:28;3.60;;;1.30;;
15130;SDS011;7666;50.920;4.628;2023-09-19T16:50:13;4.33;;;1.47;;
15130;SDS011;7666;50.920;4.628;2023-09-19T16:52:59;3.73;;;1.60;;
15130;SDS011;7666;50.920;4.628;2023-09-19T16:55:46;4.67;;;1.50;;
15130;SDS011;7666;50.920;4.628;2023-09-19T16:58:33;4.30;;;1.40;;
15130;SDS011;7666;50.920;4.628;2023-09-19T17:01:19;4.20;;;1.77;;
15130;SDS011;7666;50.920;4.628;2023-09-19T17:04:06;2.67;;;1.10;;
15130;SDS011;7666;50.920;4.628;2023-09-19T17:06:53;6.13;;;1.70;;
15130;SDS011;7666;50.920;4.628;2023-09-19T17:09:39;4.73;;;1.70;;
15130;SDS011;7666;50.920;4.628;2023-09-19T17:12:25;4.33;;;1.70;;
15130;SDS011;7666;50.920;4.628;2023-09-19T17:15:11;6.83;;;2.07;;
15130;SDS011;7666;50.920;4.628;2023-09-19T17:17:58;6.30;;;1.43;;
15130;SDS011;7666;50.920;4.628;2023-09-19T17:20:44;5.37;;;1.73;;
15130;SDS011;7666;50.920;4.628;2023-09-19T17:23:31;5.00;;;1.50;;
15130;SDS011;7666;50.920;4.628;2023-09-19T17:26:20;5.17;;;1.50;;
15130;SDS011;7666;50.920;4.628;2023-09-19T17:29:07;6.47;;;1.60;;
15130;SDS011;7666;50.920;4.628;2023-09-19T17:31:53;6.90;;;1.70;;
15130;SDS011;7666;50.920;4.628;2023-09-19T17:34:39;7.03;;;1.97;;
15130;SDS011;7666;50.920;4.628;2023-09-19T17:37:25;7.13;;;1.60;;